| time (UTC) | temp F | wind direction | speed MPH | gust MPH | rain 1hr in | rain 24hr in | rain mn in | humidity % | barometer mb |
| 20260507114105 | 60 | 338 | 1.0 | 3.0 | 0.00 | 0.00 | 0.00 | 57 | 1014.6 |
| 20260507113605 | 59 | 335 | 1.0 | 3.0 | 0.00 | 0.00 | 0.00 | 50 | 1014.6 |
| 20260507113105 | 59 | 339 | 0.0 | 5.0 | 0.00 | 0.00 | 0.00 | 56 | 1014.7 |
| 20260507112605 | 59 | 345 | 0.0 | 3.0 | 0.00 | 0.00 | 0.00 | 58 | 1014.9 |
| 20260507112106 | 59 | 343 | 0.0 | 3.0 | 0.00 | 0.00 | 0.00 | 58 | 1014.9 |
| 20260507110605 | 60 | 7 | 0.0 | 0.0 | 0.00 | 0.00 | 0.00 | 57 | 1014.9 |
| 20260507110105 | 60 | 7 | 0.0 | 0.0 | 0.00 | 0.00 | 0.00 | 56 | 1015.0 |
| 20260507105604 | 58 | 7 | 0.0 | 0.0 | 0.00 | 0.00 | 0.00 | 59 | 1015.0 |
| 20260507105104 | 58 | 7 | 0.0 | 3.0 | 0.00 | 0.00 | 0.00 | 62 | 1014.9 |
| 20260507104605 | 58 | 7 | 1.0 | 3.0 | 0.00 | 0.00 | 0.00 | 62 | 1014.9 |
| 20260507104105 | 58 | 50 | 0.0 | 0.0 | 0.00 | 0.00 | 0.00 | 61 | 1014.9 |
| 20260507103605 | 60 | 50 | 0.0 | 3.0 | 0.00 | 0.00 | 0.00 | 56 | 1014.9 |
| 20260507103105 | 62 | 347 | 0.0 | 0.0 | 0.00 | 0.00 | 0.00 | 54 | 1014.9 |
| 20260507102606 | 61 | 350 | 0.0 | 0.0 | 0.00 | 0.00 | 0.00 | 56 | 1014.9 |
| 20260507101605 | 59 | 358 | 1.0 | 3.0 | 0.00 | 0.00 | 0.00 | 61 | 1014.9 |
| 20260507101105 | 61 | 46 | 1.0 | 3.0 | 0.00 | 0.00 | 0.00 | 60 | 1014.9 |
| 20260507100605 | 59 | 59 | 0.0 | 0.0 | 0.00 | 0.00 | 0.00 | 58 | 1014.8 |
| 20260507100105 | 56 | 57 | 1.0 | 0.0 | 0.00 | 0.00 | 0.00 | 74 | 1014.7 |
| 20260507095605 | 56 | 57 | 1.0 | 0.0 | 0.00 | 0.00 | 0.00 | 74 | 1014.7 |
| 20260507094105 | 56 | 57 | 1.0 | 0.0 | 0.00 | 0.00 | 0.00 | 74 | 1014.7 |
| 20260507093605 | 56 | 57 | 1.0 | 0.0 | 0.00 | 0.00 | 0.00 | 74 | 1014.7 |
| 20260507092606 | 56 | 57 | 1.0 | 0.0 | 0.00 | 0.00 | 0.00 | 74 | 1014.7 |
| 20260507092105 | 56 | 57 | 1.0 | 0.0 | 0.00 | 0.00 | 0.00 | 74 | 1014.7 |
| 20260507091607 | 56 | 57 | 1.0 | 0.0 | 0.00 | 0.00 | 0.00 | 74 | 1014.7 |
| 20260507091106 | 56 | 57 | 1.0 | 0.0 | 0.00 | 0.00 | 0.00 | 74 | 1014.7 |
| 20260507090606 | 56 | 57 | 1.0 | 0.0 | 0.00 | 0.00 | 0.00 | 74 | 1014.7 |
| 20260507090105 | 56 | 57 | 1.0 | 0.0 | 0.00 | 0.00 | 0.00 | 74 | 1014.7 |
| 20260507085605 | 56 | 57 | 1.0 | 0.0 | 0.00 | 0.00 | 0.00 | 74 | 1014.7 |
| 20260507085105 | 56 | 57 | 1.0 | 3.0 | 0.00 | 0.00 | 0.00 | 74 | 1014.7 |
| 20260507084104 | 56 | 79 | 0.0 | 2.0 | 0.00 | 0.00 | 0.00 | 74 | 1014.7 |
| 20260507083605 | 56 | 79 | 1.0 | 2.0 | 0.00 | 0.00 | 0.00 | 75 | 1014.6 |
| 20260507083105 | 55 | 25 | 1.0 | 3.0 | 0.00 | 0.00 | 0.00 | 76 | 1014.7 |
| 20260507082105 | 54 | 357 | 0.0 | 0.0 | 0.00 | 0.00 | 0.00 | 77 | 1014.6 |
| 20260507081104 | 55 | 357 | 2.0 | 5.0 | 0.00 | 0.00 | 0.00 | 77 | 1014.6 |
| 20260507080605 | 54 | 351 | 0.0 | 0.0 | 0.00 | 0.00 | 0.00 | 79 | 1014.6 |
| 20260507080105 | 53 | 351 | 0.0 | 0.0 | 0.00 | 0.00 | 0.00 | 79 | 1014.6 |
| 20260507075105 | 53 | 351 | 0.0 | 0.0 | 0.00 | 0.00 | 0.00 | 79 | 1014.6 |
| 20260507074105 | 52 | 351 | 0.0 | 0.0 | 0.00 | 0.00 | 0.00 | 82 | 1014.6 |
| 20260507073605 | 52 | 351 | 0.0 | 3.0 | 0.00 | 0.00 | 0.00 | 82 | 1014.5 |
| 20260507073105 | 52 | 351 | 2.0 | 3.0 | 0.00 | 0.00 | 0.00 | 82 | 1014.5 |
| 20260507072605 | 52 | 349 | 1.0 | 3.0 | 0.00 | 0.00 | 0.00 | 83 | 1014.4 |
| 20260507072105 | 51 | 349 | 0.0 | 3.0 | 0.00 | 0.00 | 0.00 | 83 | 1014.5 |
| 20260507071604 | 51 | 347 | 0.0 | 3.0 | 0.00 | 0.00 | 0.00 | 83 | 1014.5 |
| 20260507071105 | 51 | 345 | 1.0 | 5.0 | 0.00 | 0.00 | 0.00 | 83 | 1014.5 |
| 20260507070605 | 51 | 345 | 2.0 | 3.0 | 0.00 | 0.00 | 0.00 | 83 | 1014.5 |
| 20260507070105 | 51 | 345 | 0.0 | 2.0 | 0.00 | 0.00 | 0.00 | 83 | 1014.4 |
| 20260507065605 | 50 | 345 | 0.0 | 2.0 | 0.00 | 0.00 | 0.00 | 83 | 1014.4 |
| 20260507065105 | 50 | 344 | 0.0 | 3.0 | 0.00 | 0.00 | 0.00 | 84 | 1014.3 |
| 20260507064605 | 50 | 344 | 1.0 | 3.0 | 0.00 | 0.00 | 0.00 | 84 | 1014.3 |
| 20260507064105 | 50 | 343 | 2.0 | 3.0 | 0.00 | 0.00 | 0.00 | 84 | 1014.4 |
| 20260507063105 | 50 | 338 | 0.0 | 0.0 | 0.00 | 0.00 | 0.00 | 84 | 1014.3 |
| 20260507062605 | 50 | 337 | 1.0 | 3.0 | 0.00 | 0.00 | 0.00 | 84 | 1014.2 |
| 20260507062105 | 50 | 339 | 0.0 | 0.0 | 0.00 | 0.00 | 0.00 | 85 | 1014.2 |
| 20260507061605 | 50 | 339 | 0.0 | 0.0 | 0.00 | 0.00 | 0.00 | 85 | 1014.1 |
| 20260507061105 | 50 | 339 | 0.0 | 0.0 | 0.00 | 0.00 | 0.00 | 85 | 1014.2 |
| 20260507060606 | 50 | 338 | 0.0 | 0.0 | 0.00 | 0.00 | 0.00 | 85 | 1014.2 |
| 20260507060105 | 50 | 339 | 0.0 | 3.0 | 0.00 | 0.00 | 0.00 | 85 | 1014.1 |
| 20260507055605 | 50 | 339 | 0.0 | 0.0 | 0.00 | 0.00 | 0.00 | 85 | 1014.1 |
| 20260507054604 | 49 | 338 | 1.0 | 3.0 | 0.00 | 0.00 | 0.00 | 85 | 1014.0 |
| 20260507054105 | 49 | 339 | 0.0 | 0.0 | 0.00 | 0.00 | 0.00 | 86 | 1014.1 |
| 20260507053605 | 49 | 339 | 2.0 | 3.0 | 0.00 | 0.00 | 0.00 | 85 | 1014.0 |
| 20260507053105 | 49 | 339 | 0.0 | 0.0 | 0.00 | 0.00 | 0.00 | 86 | 1013.9 |
| 20260507052604 | 49 | 338 | 0.0 | 0.0 | 0.00 | 0.00 | 0.00 | 86 | 1013.8 |
| 20260507052104 | 49 | 339 | 0.0 | 0.0 | 0.00 | 0.00 | 0.00 | 86 | 1013.9 |
| 20260507051605 | 49 | 338 | 0.0 | 0.0 | 0.00 | 0.00 | 0.00 | 85 | 1013.8 |
| 20260507051105 | 49 | 339 | 0.0 | 0.0 | 0.00 | 0.00 | 0.00 | 86 | 1013.6 |
| 20260507050605 | 49 | 339 | 0.0 | 0.0 | 0.00 | 0.00 | 0.00 | 86 | 1013.6 |
| 20260507050105 | 49 | 339 | 0.0 | 0.0 | 0.00 | 0.00 | 0.00 | 85 | 1013.5 |
| 20260507045605 | 49 | 339 | 0.0 | 0.0 | 0.00 | 0.00 | 0.00 | 85 | 1013.4 |
| 20260507045105 | 49 | 338 | 0.0 | 0.0 | 0.00 | 0.00 | 0.00 | 85 | 1013.5 |
| 20260507044605 | 49 | 339 | 0.0 | 0.0 | 0.00 | 0.00 | 0.00 | 85 | 1013.3 |
| 20260507044105 | 49 | 339 | 0.0 | 0.0 | 0.00 | 0.00 | 0.00 | 85 | 1013.2 |
| 20260507043605 | 49 | 339 | 0.0 | 0.0 | 0.00 | 0.00 | 0.00 | 85 | 1013.3 |
| 20260507043105 | 49 | 339 | 0.0 | 0.0 | 0.00 | 0.00 | 0.00 | 86 | 1013.3 |
| 20260507042604 | 49 | 339 | 0.0 | 0.0 | 0.00 | 0.00 | 0.00 | 85 | 1013.3 |
| 20260507042105 | 49 | 338 | 0.0 | 0.0 | 0.00 | 0.00 | 0.00 | 85 | 1013.3 |
| 20260507041605 | 49 | 337 | 0.0 | 0.0 | 0.00 | 0.00 | 0.00 | 85 | 1013.3 |
| 20260507041106 | 50 | 339 | 0.0 | 0.0 | 0.00 | 0.01 | 0.00 | 85 | 1013.2 |
| 20260507035605 | 50 | 339 | 0.0 | 0.0 | 0.00 | 0.01 | 0.00 | 85 | 1013.1 |
| 20260507035105 | 50 | 339 | 0.0 | 0.0 | 0.00 | 0.01 | 0.00 | 85 | 1013.1 |
| 20260507034105 | 50 | 337 | 0.0 | 0.0 | 0.00 | 0.01 | 0.00 | 85 | 1013.0 |
| 20260507033605 | 50 | 339 | 0.0 | 0.0 | 0.00 | 0.01 | 0.00 | 85 | 1013.0 |
| 20260507033105 | 50 | 339 | 0.0 | 0.0 | 0.00 | 0.01 | 0.00 | 85 | 1013.0 |
| 20260507032605 | 50 | 338 | 0.0 | 0.0 | 0.00 | 0.01 | 0.00 | 85 | 1013.1 |
| 20260507032105 | 50 | 339 | 0.0 | 0.0 | 0.00 | 0.01 | 0.00 | 84 | 1013.1 |
| 20260507031605 | 50 | 339 | 0.0 | 0.0 | 0.00 | 0.01 | 0.00 | 84 | 1013.1 |
| 20260507031105 | 50 | 338 | 0.0 | 0.0 | 0.00 | 0.01 | 0.00 | 85 | 1013.1 |
| 20260507030605 | 50 | 339 | 0.0 | 0.0 | 0.00 | 0.02 | 0.00 | 85 | 1013.1 |
| 20260507030105 | 50 | 339 | 0.0 | 0.0 | 0.00 | 0.02 | 0.00 | 85 | 1013.1 |
| 20260507025605 | 50 | 339 | 0.0 | 0.0 | 0.00 | 0.02 | 0.00 | 84 | 1013.1 |
| 20260507025105 | 50 | 339 | 0.0 | 0.0 | 0.00 | 0.02 | 0.00 | 85 | 1013.1 |
| 20260507024605 | 50 | 339 | 0.0 | 0.0 | 0.00 | 0.02 | 0.00 | 85 | 1013.1 |
| 20260507024105 | 50 | 339 | 0.0 | 0.0 | 0.00 | 0.02 | 0.00 | 84 | 1013.1 |
| 20260507023107 | 50 | 338 | 0.0 | 0.0 | 0.00 | 0.02 | 0.00 | 85 | 1013.1 |
| 20260507022605 | 50 | 339 | 0.0 | 0.0 | 0.00 | 0.02 | 0.00 | 84 | 1013.1 |
| 20260507022105 | 50 | 339 | 0.0 | 0.0 | 0.00 | 0.03 | 0.00 | 84 | 1013.0 |
| 20260507021605 | 50 | 339 | 0.0 | 0.0 | 0.00 | 0.03 | 0.00 | 84 | 1013.0 |
| 20260507021105 | 50 | 339 | 0.0 | 0.0 | 0.00 | 0.03 | 0.00 | 85 | 1012.9 |
| 20260507020105 | 50 | 339 | 0.0 | 1.0 | 0.00 | 0.04 | 0.00 | 84 | 1012.8 |
| 20260507015105 | 51 | 338 | 0.0 | 0.0 | 0.00 | 0.04 | 0.00 | 85 | 1012.7 |
| 20260507014605 | 51 | 339 | 0.0 | 0.0 | 0.00 | 0.05 | 0.00 | 85 | 1012.7 |
| 20260507014105 | 51 | 338 | 0.0 | 0.0 | 0.00 | 0.05 | 0.00 | 85 | 1012.7 |
| 20260507013606 | 51 | 338 | 0.0 | 3.0 | 0.00 | 0.05 | 0.00 | 85 | 1012.7 |
| 20260507013105 | 51 | 339 | 0.0 | 0.0 | 0.00 | 0.05 | 0.00 | 85 | 1012.7 |
| 20260507012105 | 51 | 338 | 0.0 | 0.0 | 0.00 | 0.05 | 0.00 | 85 | 1012.7 |
| 20260507011605 | 51 | 338 | 0.0 | 0.0 | 0.00 | 0.05 | 0.00 | 84 | 1012.7 |
| 20260507011106 | 51 | 339 | 0.0 | 0.0 | 0.00 | 0.05 | 0.00 | 85 | 1012.7 |
| 20260507010105 | 51 | 339 | 0.0 | 0.0 | 0.00 | 0.06 | 0.00 | 84 | 1012.6 |
| 20260507005605 | 51 | 339 | 0.0 | 0.0 | 0.00 | 0.06 | 0.00 | 84 | 1012.6 |
| 20260507005105 | 51 | 339 | 0.0 | 0.0 | 0.00 | 0.06 | 0.00 | 84 | 1012.6 |
| 20260507004605 | 51 | 339 | 0.0 | 0.0 | 0.00 | 0.06 | 0.00 | 84 | 1012.5 |
| 20260507004105 | 51 | 338 | 0.0 | 0.0 | 0.00 | 0.06 | 0.00 | 84 | 1012.5 |
| 20260507003606 | 51 | 339 | 0.0 | 3.0 | 0.00 | 0.06 | 0.00 | 84 | 1012.5 |
| 20260507003105 | 51 | 336 | 0.0 | 0.0 | 0.00 | 0.06 | 0.00 | 84 | 1012.6 |
| 20260507002605 | 51 | 335 | 0.0 | 0.0 | 0.00 | 0.06 | 0.00 | 83 | 1012.6 |
| 20260507002105 | 51 | 336 | 0.0 | 0.0 | 0.00 | 0.06 | 0.00 | 83 | 1012.6 |
| 20260507001607 | 51 | 336 | 0.0 | 2.0 | 0.00 | 0.06 | 0.00 | 83 | 1012.6 |
| 20260507001107 | 51 | 336 | 0.0 | 3.0 | 0.00 | 0.06 | 0.00 | 84 | 1012.5 |
| 20260507000605 | 51 | 335 | 0.0 | 3.0 | 0.00 | 0.06 | 0.00 | 83 | 1012.5 |
| 20260507000105 | 51 | 335 | 0.0 | 0.0 | 0.00 | 0.06 | 0.00 | 84 | 1012.5 |
| 20260506235606 | 51 | 335 | 1.0 | 3.0 | 0.00 | 0.06 | 0.00 | 84 | 1012.4 |
| 20260506235105 | 51 | 332 | 0.0 | 0.0 | 0.00 | 0.06 | 0.00 | 84 | 1012.5 |
| 20260506234605 | 51 | 332 | 0.0 | 3.0 | 0.00 | 0.06 | 0.00 | 84 | 1012.5 |
| 20260506234105 | 51 | 333 | 0.0 | 0.0 | 0.00 | 0.07 | 0.00 | 84 | 1012.5 |
| 20260506233606 | 51 | 333 | 0.0 | 0.0 | 0.00 | 0.07 | 0.00 | 84 | 1012.6 |
| 20260506232605 | 51 | 333 | 0.0 | 0.0 | 0.00 | 0.08 | 0.00 | 84 | 1012.6 |
| 20260506232106 | 51 | 333 | 0.0 | 0.0 | 0.00 | 0.08 | 0.00 | 84 | 1012.6 |
| 20260506231605 | 51 | 333 | 0.0 | 0.0 | 0.00 | 0.08 | 0.00 | 84 | 1012.6 |
| 20260506230605 | 51 | 333 | 0.0 | 0.0 | 0.00 | 0.08 | 0.00 | 84 | 1012.5 |
| 20260506230105 | 51 | 333 | 0.0 | 0.0 | 0.00 | 0.08 | 0.00 | 84 | 1012.5 |
| 20260506225605 | 51 | 332 | 0.0 | 0.0 | 0.00 | 0.08 | 0.00 | 84 | 1012.4 |
| 20260506225105 | 51 | 333 | 0.0 | 0.0 | 0.00 | 0.08 | 0.00 | 84 | 1012.4 |
| 20260506224605 | 51 | 333 | 0.0 | 0.0 | 0.00 | 0.08 | 0.00 | 84 | 1012.4 |
| 20260506224105 | 51 | 333 | 0.0 | 0.0 | 0.00 | 0.08 | 0.00 | 84 | 1012.4 |
| 20260506223105 | 51 | 333 | 0.0 | 0.0 | 0.00 | 0.09 | 0.00 | 84 | 1012.4 |
| 20260506222605 | 51 | 333 | 0.0 | 0.0 | 0.00 | 0.09 | 0.00 | 84 | 1012.3 |
| 20260506222105 | 51 | 333 | 0.0 | 0.0 | 0.00 | 0.09 | 0.00 | 84 | 1012.3 |
| 20260506221606 | 51 | 332 | 0.0 | 0.0 | 0.00 | 0.09 | 0.00 | 84 | 1012.2 |
| 20260506221105 | 51 | 333 | 0.0 | 0.0 | 0.00 | 0.09 | 0.00 | 84 | 1012.2 |
| 20260506220605 | 51 | 333 | 0.0 | 0.0 | 0.00 | 0.09 | 0.00 | 84 | 1012.2 |
| 20260506220105 | 51 | 332 | 0.0 | 0.0 | 0.00 | 0.09 | 0.00 | 84 | 1012.1 |
| 20260506215606 | 51 | 333 | 0.0 | 0.0 | 0.00 | 0.09 | 0.09 | 84 | 1012.2 |
| 20260506215105 | 51 | 333 | 0.0 | 0.0 | 0.00 | 0.09 | 0.09 | 84 | 1012.1 |
| 20260506214104 | 51 | 333 | 0.0 | 0.0 | 0.00 | 0.09 | 0.09 | 84 | 1012.1 |
| 20260506213604 | 51 | 334 | 0.0 | 2.0 | 0.00 | 0.09 | 0.09 | 84 | 1012.1 |
| 20260506212603 | 51 | 333 | 0.0 | 0.0 | 0.00 | 0.09 | 0.09 | 84 | 1012.1 |
| 20260506211604 | 51 | 334 | 0.0 | 0.0 | 0.00 | 0.09 | 0.09 | 84 | 1012.0 |
| 20260506211103 | 51 | 334 | 0.0 | 0.0 | 0.00 | 0.09 | 0.09 | 84 | 1012.0 |
| 20260506210605 | 51 | 333 | 0.0 | 0.0 | 0.00 | 0.09 | 0.09 | 84 | 1012.0 |
| 20260506210103 | 51 | 334 | 0.0 | 0.0 | 0.00 | 0.09 | 0.09 | 84 | 1012.0 |
| 20260506205604 | 51 | 334 | 0.0 | 0.0 | 0.00 | 0.09 | 0.09 | 84 | 1012.0 |
| 20260506205104 | 51 | 334 | 0.0 | 0.0 | 0.00 | 0.09 | 0.09 | 84 | 1011.9 |
| 20260506204603 | 51 | 334 | 0.0 | 2.0 | 0.00 | 0.09 | 0.09 | 84 | 1011.9 |
| 20260506204104 | 51 | 334 | 0.0 | 0.0 | 0.00 | 0.09 | 0.09 | 85 | 1011.9 |
| 20260506203604 | 51 | 333 | 0.0 | 0.0 | 0.00 | 0.09 | 0.09 | 85 | 1011.9 |
| 20260506202603 | 51 | 334 | 0.0 | 0.0 | 0.00 | 0.09 | 0.09 | 85 | 1011.8 |
| 20260506202103 | 51 | 334 | 0.0 | 2.0 | 0.00 | 0.09 | 0.09 | 85 | 1011.8 |
| 20260506201603 | 51 | 332 | 0.0 | 0.0 | 0.00 | 0.09 | 0.09 | 85 | 1011.7 |
| 20260506201104 | 51 | 334 | 0.0 | 0.0 | 0.00 | 0.09 | 0.09 | 85 | 1011.6 |
| 20260506200603 | 51 | 335 | 0.0 | 1.0 | 0.00 | 0.09 | 0.09 | 85 | 1011.7 |
| 20260506195603 | 51 | 343 | 0.0 | 0.0 | 0.00 | 0.09 | 0.09 | 85 | 1011.6 |
| 20260506195104 | 51 | 343 | 1.0 | 3.0 | 0.00 | 0.09 | 0.09 | 85 | 1011.6 |
| 20260506194603 | 51 | 344 | 0.0 | 0.0 | 0.00 | 0.09 | 0.09 | 85 | 1011.5 |
| 20260506194103 | 51 | 344 | 0.0 | 0.0 | 0.00 | 0.09 | 0.09 | 85 | 1011.5 |
| 20260506193104 | 51 | 344 | 1.0 | 3.0 | 0.00 | 0.09 | 0.09 | 85 | 1011.3 |
| 20260506192604 | 51 | 350 | 0.0 | 2.0 | 0.00 | 0.09 | 0.09 | 85 | 1011.2 |
| 20260506192103 | 51 | 351 | 0.0 | 5.0 | 0.00 | 0.09 | 0.09 | 86 | 1011.0 |
| 20260506191104 | 51 | 354 | 2.0 | 5.0 | 0.00 | 0.09 | 0.09 | 84 | 1011.0 |
| 20260506190104 | 52 | 340 | 5.0 | 10.0 | 0.00 | 0.09 | 0.09 | 81 | 1011.0 |
| 20260506185604 | 53 | 351 | 0.0 | 5.0 | 0.00 | 0.09 | 0.09 | 80 | 1010.9 |
| 20260506185103 | 53 | 347 | 3.0 | 6.0 | 0.00 | 0.09 | 0.09 | 79 | 1010.9 |
| 20260506184603 | 53 | 3 | 6.0 | 8.0 | 0.00 | 0.09 | 0.09 | 78 | 1010.8 |
| 20260506184104 | 53 | 351 | 4.0 | 7.0 | 0.00 | 0.09 | 0.09 | 77 | 1010.8 |
| 20260506183604 | 53 | 349 | 2.0 | 5.0 | 0.00 | 0.09 | 0.09 | 78 | 1010.7 |
| 20260506183104 | 53 | 354 | 0.0 | 5.0 | 0.00 | 0.09 | 0.09 | 78 | 1010.6 |
| 20260506182603 | 53 | 354 | 0.0 | 3.0 | 0.00 | 0.09 | 0.09 | 78 | 1010.6 |
| 20260506181104 | 53 | 1 | 3.0 | 7.0 | 0.00 | 0.09 | 0.09 | 76 | 1010.4 |
| 20260506180603 | 53 | 2 | 2.0 | 7.0 | 0.00 | 0.09 | 0.09 | 76 | 1010.3 |
| 20260506180103 | 54 | 7 | 2.0 | 5.0 | 0.00 | 0.09 | 0.09 | 75 | 1010.2 |
| 20260506175604 | 54 | 348 | 2.0 | 6.0 | 0.00 | 0.09 | 0.09 | 75 | 1010.2 |
| 20260506175104 | 54 | 338 | 5.0 | 12.0 | 0.00 | 0.10 | 0.09 | 74 | 1010.1 |
| 20260506174603 | 54 | 2 | 6.0 | 12.0 | 0.00 | 0.10 | 0.09 | 73 | 1010.1 |
| 20260506174103 | 54 | 5 | 3.0 | 9.0 | 0.00 | 0.10 | 0.09 | 73 | 1010.0 |
| 20260506173103 | 54 | 2 | 5.0 | 12.0 | 0.00 | 0.10 | 0.09 | 72 | 1009.9 |
| 20260506172604 | 54 | 340 | 3.0 | 7.0 | 0.00 | 0.10 | 0.09 | 72 | 1009.9 |
| 20260506171603 | 54 | 341 | 3.0 | 10.0 | 0.00 | 0.10 | 0.09 | 71 | 1009.8 |
| 20260506171103 | 55 | 341 | 2.0 | 10.0 | 0.00 | 0.10 | 0.09 | 71 | 1009.8 |
| 20260506170604 | 55 | 358 | 5.0 | 12.0 | 0.00 | 0.10 | 0.09 | 72 | 1009.8 |
| 20260506165604 | 55 | 347 | 2.0 | 3.0 | 0.00 | 0.10 | 0.09 | 71 | 1009.7 |
| 20260506165104 | 56 | 339 | 1.0 | 6.0 | 0.00 | 0.10 | 0.09 | 71 | 1009.6 |
| 20260506164604 | 56 | 317 | 0.0 | 0.0 | 0.00 | 0.10 | 0.09 | 70 | 1009.6 |
| 20260506163604 | 56 | 308 | 1.0 | 3.0 | 0.00 | 0.10 | 0.09 | 69 | 1009.6 |
| 20260506163104 | 56 | 344 | 0.0 | 3.0 | 0.00 | 0.10 | 0.09 | 69 | 1009.5 |
| 20260506162604 | 56 | 347 | 1.0 | 3.0 | 0.00 | 0.10 | 0.09 | 68 | 1009.4 |
| 20260506162103 | 56 | 356 | 0.0 | 3.0 | 0.00 | 0.10 | 0.09 | 69 | 1009.5 |
| 20260506161603 | 56 | 341 | 1.0 | 5.0 | 0.00 | 0.10 | 0.09 | 69 | 1009.5 |
| 20260506161103 | 56 | 327 | 0.0 | 3.0 | 0.00 | 0.10 | 0.09 | 69 | 1009.5 |
| 20260506160603 | 56 | 327 | 0.0 | 2.0 | 0.00 | 0.10 | 0.09 | 70 | 1009.5 |
| 20260506155604 | 56 | 328 | 0.0 | 3.0 | 0.00 | 0.10 | 0.09 | 70 | 1009.5 |
| 20260506154604 | 55 | 311 | 1.0 | 5.0 | 0.00 | 0.10 | 0.09 | 70 | 1009.4 |
| 20260506154104 | 55 | 317 | 1.0 | 3.0 | 0.00 | 0.10 | 0.09 | 70 | 1009.4 |
| 20260506153604 | 55 | 346 | 1.0 | 3.0 | 0.00 | 0.10 | 0.09 | 70 | 1009.4 |
| 20260506153104 | 55 | 330 | 1.0 | 6.0 | 0.00 | 0.10 | 0.09 | 69 | 1009.5 |
| 20260506152604 | 55 | 326 | 0.0 | 5.0 | 0.00 | 0.10 | 0.09 | 71 | 1009.5 |
| 20260506152105 | 55 | 321 | 1.0 | 5.0 | 0.00 | 0.11 | 0.09 | 70 | 1009.5 |
| 20260506151603 | 55 | 344 | 1.0 | 3.0 | 0.00 | 0.11 | 0.09 | 71 | 1009.5 |
| 20260506150604 | 55 | 335 | 1.0 | 3.0 | 0.00 | 0.12 | 0.09 | 71 | 1009.5 |
| 20260506150104 | 55 | 338 | 1.0 | 3.0 | 0.00 | 0.12 | 0.09 | 70 | 1009.5 |
| 20260506145104 | 55 | 327 | 3.0 | 7.0 | 0.00 | 0.12 | 0.09 | 70 | 1009.5 |
| 20260506144604 | 54 | 326 | 1.0 | 5.0 | 0.00 | 0.12 | 0.09 | 70 | 1009.6 |
| 20260506144104 | 55 | 339 | 3.0 | 6.0 | 0.00 | 0.12 | 0.09 | 70 | 1009.6 |
| 20260506143603 | 55 | 330 | 3.0 | 8.0 | 0.00 | 0.13 | 0.09 | 69 | 1009.6 |
| 20260506143104 | 55 | 342 | 2.0 | 7.0 | 0.00 | 0.13 | 0.09 | 68 | 1009.6 |
| 20260506142603 | 55 | 340 | 1.0 | 3.0 | 0.00 | 0.13 | 0.09 | 67 | 1009.5 |
| 20260506142104 | 55 | 323 | 2.0 | 6.0 | 0.00 | 0.13 | 0.09 | 66 | 1009.5 |
| 20260506141604 | 55 | 346 | 2.0 | 9.0 | 0.00 | 0.13 | 0.09 | 67 | 1009.5 |
| 20260506141104 | 56 | 350 | 6.0 | 12.0 | 0.00 | 0.13 | 0.09 | 67 | 1009.5 |
| 20260506140103 | 57 | 348 | 4.0 | 12.0 | 0.00 | 0.15 | 0.09 | 66 | 1009.5 |
| 20260506135603 | 57 | 322 | 2.0 | 10.0 | 0.00 | 0.16 | 0.09 | 66 | 1009.5 |
| 20260506134604 | 57 | 310 | 2.0 | 5.0 | 0.00 | 0.17 | 0.09 | 65 | 1009.6 |
| 20260506134104 | 58 | 316 | 1.0 | 6.0 | 0.00 | 0.17 | 0.09 | 65 | 1009.6 |
| 20260506133603 | 57 | 331 | 2.0 | 7.0 | 0.00 | 0.17 | 0.09 | 67 | 1009.5 |
| 20260506133104 | 57 | 305 | 1.0 | 5.0 | 0.00 | 0.17 | 0.09 | 68 | 1009.5 |
| 20260506132604 | 56 | 342 | 2.0 | 7.0 | 0.00 | 0.17 | 0.09 | 68 | 1009.5 |
| 20260506132104 | 56 | 322 | 3.0 | 6.0 | 0.00 | 0.17 | 0.09 | 67 | 1009.6 |
| 20260506131604 | 56 | 315 | 1.0 | 6.0 | 0.00 | 0.17 | 0.09 | 67 | 1009.5 |
| 20260506130603 | 57 | 331 | 3.0 | 9.0 | 0.00 | 0.17 | 0.09 | 65 | 1009.4 |
| 20260506130105 | 58 | 333 | 1.0 | 5.0 | 0.00 | 0.17 | 0.09 | 62 | 1009.2 |
| 20260506125604 | 58 | 324 | 1.0 | 5.0 | 0.00 | 0.17 | 0.09 | 64 | 1009.2 |
| 20260506125104 | 57 | 319 | 3.0 | 7.0 | 0.00 | 0.17 | 0.09 | 66 | 1009.2 |
| 20260506124604 | 56 | 343 | 1.0 | 7.0 | 0.00 | 0.17 | 0.09 | 67 | 1009.2 |
| 20260506124104 | 56 | 352 | 3.0 | 10.0 | 0.00 | 0.17 | 0.09 | 66 | 1009.2 |
| 20260506123604 | 57 | 6 | 5.0 | 10.0 | 0.00 | 0.17 | 0.09 | 65 | 1009.1 |
| 20260506123105 | 58 | 340 | 3.0 | 7.0 | 0.00 | 0.17 | 0.09 | 63 | 1009.0 |
| 20260506122604 | 58 | 355 | 5.0 | 12.0 | 0.00 | 0.17 | 0.09 | 62 | 1009.0 |
| 20260506122105 | 57 | 320 | 1.0 | 6.0 | 0.00 | 0.17 | 0.09 | 65 | 1009.0 |
| 20260506121604 | 57 | 351 | 6.0 | 12.0 | 0.00 | 0.17 | 0.09 | 65 | 1009.1 |
| 20260506120604 | 57 | 2 | 2.0 | 6.0 | 0.00 | 0.17 | 0.09 | 66 | 1009.0 |
| 20260506120104 | 57 | 356 | 4.0 | 12.0 | 0.00 | 0.17 | 0.09 | 67 | 1009.1 |
| 20260506115604 | 57 | 317 | 3.0 | 8.0 | 0.00 | 0.17 | 0.09 | 65 | 1009.1 |